sensor_id;sensor_type;location;lat;lon;timestamp;pressure;altitude;pressure_sealevel;temperature;humidity
69239;BME280;56349;51.816;-0.026;2022-11-15T00:01:23;99863.36;;;26.05;33.86
69239;BME280;56349;51.816;-0.026;2022-11-15T00:03:51;99859.95;;;26.05;33.85
69239;BME280;56349;51.816;-0.026;2022-11-15T00:06:15;99853.20;;;26.01;33.90
69239;BME280;56349;51.816;-0.026;2022-11-15T00:08:40;99851.57;;;26.26;33.92
69239;BME280;56349;51.816;-0.026;2022-11-15T00:11:07;99848.85;;;26.25;33.92
69239;BME280;56349;51.816;-0.026;2022-11-15T00:13:31;99846.05;;;25.96;33.95
69239;BME280;56349;51.816;-0.026;2022-11-15T00:15:58;99839.08;;;26.21;33.95
69239;BME280;56349;51.816;-0.026;2022-11-15T00:18:22;99833.55;;;26.20;33.96
69239;BME280;56349;51.816;-0.026;2022-11-15T00:20:48;99828.74;;;26.42;33.98
69239;BME280;56349;51.816;-0.026;2022-11-15T00:23:14;99827.45;;;25.92;33.98
69239;BME280;56349;51.816;-0.026;2022-11-15T00:25:40;99824.51;;;26.41;33.96
69239;BME280;56349;51.816;-0.026;2022-11-15T00:28:06;99822.72;;;25.89;33.99
69239;BME280;56349;51.816;-0.026;2022-11-15T00:30:32;99819.38;;;26.13;34.02
69239;BME280;56349;51.816;-0.026;2022-11-15T00:33:02;99818.58;;;26.35;34.02
69239;BME280;56349;51.816;-0.026;2022-11-15T00:35:23;99817.10;;;25.86;34.00
69239;BME280;56349;51.816;-0.026;2022-11-15T00:37:49;99814.59;;;25.86;33.99
69239;BME280;56349;51.816;-0.026;2022-11-15T00:40:15;99811.87;;;26.12;33.98
69239;BME280;56349;51.816;-0.026;2022-11-15T00:42:41;99802.44;;;25.84;33.96
69239;BME280;56349;51.816;-0.026;2022-11-15T00:45:07;99797.23;;;26.13;33.94
69239;BME280;56349;51.816;-0.026;2022-11-15T00:47:31;99794.64;;;25.85;33.94
69239;BME280;56349;51.816;-0.026;2022-11-15T00:49:58;99789.85;;;26.09;33.95
69239;BME280;56349;51.816;-0.026;2022-11-15T00:52:22;99786.94;;;26.27;33.99
69239;BME280;56349;51.816;-0.026;2022-11-15T00:54:48;99781.25;;;26.24;34.01
69239;BME280;56349;51.816;-0.026;2022-11-15T00:57:14;99778.02;;;26.25;34.01
69239;BME280;56349;51.816;-0.026;2022-11-15T00:59:40;99776.38;;;26.23;34.02
69239;BME280;56349;51.816;-0.026;2022-11-15T01:02:06;99770.26;;;25.74;34.01
69239;BME280;56349;51.816;-0.026;2022-11-15T01:04:30;99766.70;;;25.99;33.91
69239;BME280;56349;51.816;-0.026;2022-11-15T01:06:57;99761.85;;;26.16;33.91
69239;BME280;56349;51.816;-0.026;2022-11-15T01:09:22;99759.11;;;25.64;34.00
69239;BME280;56349;51.816;-0.026;2022-11-15T01:11:49;99759.12;;;26.08;34.03
69239;BME280;56349;51.816;-0.026;2022-11-15T01:14:13;99755.62;;;25.80;34.00
69239;BME280;56349;51.816;-0.026;2022-11-15T01:16:39;99750.13;;;25.92;33.97
69239;BME280;56349;51.816;-0.026;2022-11-15T01:19:05;99747.33;;;25.76;34.01
69239;BME280;56349;51.816;-0.026;2022-11-15T01:21:31;99743.27;;;25.57;34.10
69239;BME280;56349;51.816;-0.026;2022-11-15T01:23:57;99740.87;;;25.32;34.24
69239;BME280;56349;51.816;-0.026;2022-11-15T01:26:24;99733.69;;;25.27;34.42
69239;BME280;56349;51.816;-0.026;2022-11-15T01:28:49;99731.18;;;25.00;34.62
69239;BME280;56349;51.816;-0.026;2022-11-15T01:31:16;99725.04;;;24.98;34.86
69239;BME280;56349;51.816;-0.026;2022-11-15T01:33:40;99724.04;;;24.73;35.06
69239;BME280;56349;51.816;-0.026;2022-11-15T01:36:07;99719.39;;;24.46;35.31
69239;BME280;56349;51.816;-0.026;2022-11-15T01:38:31;99720.46;;;24.66;35.54
69239;BME280;56349;51.816;-0.026;2022-11-15T01:40:57;99717.08;;;24.19;35.76
69239;BME280;56349;51.816;-0.026;2022-11-15T01:43:25;99708.39;;;23.97;35.95
69239;BME280;56349;51.816;-0.026;2022-11-15T01:45:52;99700.22;;;23.56;36.13
69239;BME280;56349;51.816;-0.026;2022-11-15T01:48:14;99699.05;;;23.83;36.31
69239;BME280;56349;51.816;-0.026;2022-11-15T01:50:40;99696.04;;;23.65;36.50
69239;BME280;56349;51.816;-0.026;2022-11-15T01:53:06;99693.86;;;23.45;36.73
69239;BME280;56349;51.816;-0.026;2022-11-15T01:55:32;99687.82;;;23.77;36.92
69239;BME280;56349;51.816;-0.026;2022-11-15T01:58:01;99679.86;;;23.59;37.11
69239;BME280;56349;51.816;-0.026;2022-11-15T02:00:24;99672.66;;;23.23;37.30
69239;BME280;56349;51.816;-0.026;2022-11-15T02:02:50;99666.21;;;23.31;37.48
69239;BME280;56349;51.816;-0.026;2022-11-15T02:05:15;99663.38;;;23.17;37.66
69239;BME280;56349;51.816;-0.026;2022-11-15T02:07:41;99664.68;;;23.05;37.81
69239;BME280;56349;51.816;-0.026;2022-11-15T02:10:09;99656.92;;;22.71;37.97
69239;BME280;56349;51.816;-0.026;2022-11-15T02:12:33;99656.61;;;22.85;38.10
69239;BME280;56349;51.816;-0.026;2022-11-15T02:14:58;99657.96;;;22.78;38.19
69239;BME280;56349;51.816;-0.026;2022-11-15T02:17:33;99652.25;;;22.66;38.34
69239;BME280;56349;51.816;-0.026;2022-11-15T02:22:23;99657.95;;;22.49;38.59
69239;BME280;56349;51.816;-0.026;2022-11-15T02:29:44;99644.16;;;22.49;38.95
69239;BME280;56349;51.816;-0.026;2022-11-15T02:32:02;99642.59;;;22.62;39.09
69239;BME280;56349;51.816;-0.026;2022-11-15T02:34:28;99640.12;;;22.03;39.21
69239;BME280;56349;51.816;-0.026;2022-11-15T02:36:56;99630.71;;;22.45;39.33
69239;BME280;56349;51.816;-0.026;2022-11-15T02:39:23;99623.10;;;22.42;39.38
69239;BME280;56349;51.816;-0.026;2022-11-15T02:41:45;99620.20;;;22.38;39.44
69239;BME280;56349;51.816;-0.026;2022-11-15T02:44:12;99614.13;;;22.30;39.54
69239;BME280;56349;51.816;-0.026;2022-11-15T02:46:36;99609.37;;;21.99;39.66
69239;BME280;56349;51.816;-0.026;2022-11-15T02:48:59;99603.84;;;22.16;39.74
69239;BME280;56349;51.816;-0.026;2022-11-15T02:51:24;99598.81;;;22.09;39.84
69239;BME280;56349;51.816;-0.026;2022-11-15T02:53:50;99598.63;;;22.02;39.94
69239;BME280;56349;51.816;-0.026;2022-11-15T02:56:16;99590.52;;;21.97;40.02
69239;BME280;56349;51.816;-0.026;2022-11-15T02:58:56;99582.59;;;21.90;40.10
69239;BME280;56349;51.816;-0.026;2022-11-15T03:01:13;99572.70;;;21.84;40.18
69239;BME280;56349;51.816;-0.026;2022-11-15T03:03:42;99567.11;;;21.79;40.27
69239;BME280;56349;51.816;-0.026;2022-11-15T03:06:05;99562.58;;;21.72;40.35
69239;BME280;56349;51.816;-0.026;2022-11-15T03:08:29;99562.21;;;21.66;40.42
69239;BME280;56349;51.816;-0.026;2022-11-15T03:10:57;99558.17;;;21.61;40.50
69239;BME280;56349;51.816;-0.026;2022-11-15T03:13:24;99550.18;;;21.54;40.58
69239;BME280;56349;51.816;-0.026;2022-11-15T03:15:44;99543.74;;;21.71;40.65
69239;BME280;56349;51.816;-0.026;2022-11-15T03:18:14;99541.08;;;21.68;40.71
69239;BME280;56349;51.816;-0.026;2022-11-15T03:20:33;99536.05;;;21.64;40.76
69239;BME280;56349;51.816;-0.026;2022-11-15T03:23:03;99529.00;;;21.70;40.68
69239;BME280;56349;51.816;-0.026;2022-11-15T03:25:24;99525.99;;;21.43;40.72
69239;BME280;56349;51.816;-0.026;2022-11-15T03:27:52;99525.09;;;21.85;40.82
69239;BME280;56349;51.816;-0.026;2022-11-15T03:30:14;99524.98;;;21.52;40.90
69239;BME280;56349;51.816;-0.026;2022-11-15T03:32:43;99521.66;;;21.48;40.95
69239;BME280;56349;51.816;-0.026;2022-11-15T03:35:07;99521.16;;;21.21;41.02
69239;BME280;56349;51.816;-0.026;2022-11-15T03:37:34;99525.29;;;21.40;41.07
69239;BME280;56349;51.816;-0.026;2022-11-15T03:39:56;99525.77;;;21.63;41.14
69239;BME280;56349;51.816;-0.026;2022-11-15T03:42:28;99520.28;;;21.59;41.17
69239;BME280;56349;51.816;-0.026;2022-11-15T03:44:53;99521.74;;;21.07;41.23
69239;BME280;56349;51.816;-0.026;2022-11-15T03:47:18;99520.23;;;21.04;41.25
69239;BME280;56349;51.816;-0.026;2022-11-15T03:49:44;99514.38;;;21.25;41.28
69239;BME280;56349;51.816;-0.026;2022-11-15T03:52:05;99508.48;;;21.23;41.29
69239;BME280;56349;51.816;-0.026;2022-11-15T03:54:31;99507.02;;;21.47;41.34
69239;BME280;56349;51.816;-0.026;2022-11-15T03:56:57;99501.20;;;21.17;41.37
69239;BME280;56349;51.816;-0.026;2022-11-15T03:59:23;99492.51;;;21.14;41.41
69239;BME280;56349;51.816;-0.026;2022-11-15T04:01:49;99485.01;;;21.12;41.43
69239;BME280;56349;51.816;-0.026;2022-11-15T04:04:15;99485.41;;;21.10;41.47
69239;BME280;56349;51.816;-0.026;2022-11-15T04:06:41;99484.46;;;21.33;41.49
69239;BME280;56349;51.816;-0.026;2022-11-15T04:09:07;99483.95;;;21.28;41.55
69239;BME280;56349;51.816;-0.026;2022-11-15T04:11:33;99482.19;;;20.97;41.61
69239;BME280;56349;51.816;-0.026;2022-11-15T04:13:58;99478.54;;;20.94;41.63
69239;BME280;56349;51.816;-0.026;2022-11-15T04:16:24;99476.49;;;21.20;41.67
69239;BME280;56349;51.816;-0.026;2022-11-15T04:18:50;99472.18;;;20.93;41.67
69239;BME280;56349;51.816;-0.026;2022-11-15T04:21:16;99470.16;;;21.19;41.65
69239;BME280;56349;51.816;-0.026;2022-11-15T04:23:41;99469.10;;;21.17;41.69
69239;BME280;56349;51.816;-0.026;2022-11-15T04:26:10;99465.03;;;20.88;41.72
69239;BME280;56349;51.816;-0.026;2022-11-15T04:28:33;99462.46;;;20.86;41.74
69239;BME280;56349;51.816;-0.026;2022-11-15T04:30:59;99456.00;;;21.13;41.80
69239;BME280;56349;51.816;-0.026;2022-11-15T04:33:25;99449.83;;;21.13;41.87
69239;BME280;56349;51.816;-0.026;2022-11-15T04:35:51;99445.48;;;21.15;41.96
69239;BME280;56349;51.816;-0.026;2022-11-15T04:38:17;99440.80;;;21.20;42.00
69239;BME280;56349;51.816;-0.026;2022-11-15T04:40:43;99436.95;;;21.01;42.01
69239;BME280;56349;51.816;-0.026;2022-11-15T04:43:08;99432.80;;;21.13;41.97
69239;BME280;56349;51.816;-0.026;2022-11-15T04:45:34;99424.59;;;21.27;41.84
69239;BME280;56349;51.816;-0.026;2022-11-15T04:48:00;99410.84;;;21.44;41.64
69239;BME280;56349;51.816;-0.026;2022-11-15T04:50:26;99407.78;;;21.35;41.43
69239;BME280;56349;51.816;-0.026;2022-11-15T04:52:53;99404.57;;;21.68;41.21
69239;BME280;56349;51.816;-0.026;2022-11-15T04:55:17;99400.12;;;21.75;41.06
69239;BME280;56349;51.816;-0.026;2022-11-15T04:57:42;99389.46;;;21.55;40.93
69239;BME280;56349;51.816;-0.026;2022-11-15T05:00:11;99384.83;;;21.56;40.83
69239;BME280;56349;51.816;-0.026;2022-11-15T05:02:33;99383.27;;;22.02;40.78
69239;BME280;56349;51.816;-0.026;2022-11-15T05:04:59;99378.28;;;21.71;40.78
69239;BME280;56349;51.816;-0.026;2022-11-15T05:07:25;99380.42;;;21.68;40.83
69239;BME280;56349;51.816;-0.026;2022-11-15T05:09:50;99381.55;;;21.42;40.88
69239;BME280;56349;51.816;-0.026;2022-11-15T05:12:16;99377.63;;;21.38;40.99
69239;BME280;56349;51.816;-0.026;2022-11-15T05:14:42;99375.14;;;21.33;41.15
69239;BME280;56349;51.816;-0.026;2022-11-15T05:17:08;99364.93;;;21.51;41.33
69239;BME280;56349;51.816;-0.026;2022-11-15T05:19:33;99355.50;;;21.47;41.51
69239;BME280;56349;51.816;-0.026;2022-11-15T05:21:59;99345.77;;;21.47;41.72
69239;BME280;56349;51.816;-0.026;2022-11-15T05:24:25;99335.26;;;21.45;41.91
69239;BME280;56349;51.816;-0.026;2022-11-15T05:26:51;99331.11;;;21.45;42.12
69239;BME280;56349;51.816;-0.026;2022-11-15T05:29:16;99331.42;;;21.23;42.31
69239;BME280;56349;51.816;-0.026;2022-11-15T05:31:42;99335.15;;;21.47;42.48
69239;BME280;56349;51.816;-0.026;2022-11-15T05:34:08;99336.30;;;21.27;42.62
69239;BME280;56349;51.816;-0.026;2022-11-15T05:36:36;99337.51;;;21.29;42.78
69239;BME280;56349;51.816;-0.026;2022-11-15T05:39:01;99336.10;;;21.32;42.91
69239;BME280;56349;51.816;-0.026;2022-11-15T05:41:31;99328.38;;;21.56;43.05
69239;BME280;56349;51.816;-0.026;2022-11-15T05:43:53;99318.70;;;21.37;43.18
69239;BME280;56349;51.816;-0.026;2022-11-15T05:46:18;99319.19;;;21.41;43.25
69239;BME280;56349;51.816;-0.026;2022-11-15T05:48:47;99321.30;;;21.67;43.33
69239;BME280;56349;51.816;-0.026;2022-11-15T05:51:10;99308.49;;;21.70;43.43
69239;BME280;56349;51.816;-0.026;2022-11-15T05:53:36;99301.48;;;21.73;43.49
69239;BME280;56349;51.816;-0.026;2022-11-15T05:56:01;99296.18;;;21.76;43.56
69239;BME280;56349;51.816;-0.026;2022-11-15T05:58:26;99295.02;;;22.06;43.61
69239;BME280;56349;51.816;-0.026;2022-11-15T06:00:52;99288.86;;;21.63;43.64
69239;BME280;56349;51.816;-0.026;2022-11-15T06:03:18;99284.60;;;21.66;43.65
69239;BME280;56349;51.816;-0.026;2022-11-15T06:05:44;99282.51;;;21.71;43.68
69239;BME280;56349;51.816;-0.026;2022-11-15T06:08:09;99274.24;;;21.96;43.68
69239;BME280;56349;51.816;-0.026;2022-11-15T06:10:35;99261.89;;;21.99;43.70
69239;BME280;56349;51.816;-0.026;2022-11-15T06:13:02;99257.18;;;21.81;43.70
69239;BME280;56349;51.816;-0.026;2022-11-15T06:15:27;99258.79;;;22.08;43.67
69239;BME280;56349;51.816;-0.026;2022-11-15T06:17:52;99252.48;;;21.89;43.65
69239;BME280;56349;51.816;-0.026;2022-11-15T06:20:17;99248.15;;;21.92;43.65
69239;BME280;56349;51.816;-0.026;2022-11-15T06:22:42;99242.29;;;21.96;43.62
69239;BME280;56349;51.816;-0.026;2022-11-15T06:25:08;99240.41;;;22.00;43.58
69239;BME280;56349;51.816;-0.026;2022-11-15T06:27:34;99244.73;;;22.03;43.56
69239;BME280;56349;51.816;-0.026;2022-11-15T06:30:00;99246.61;;;22.06;43.51
69239;BME280;56349;51.816;-0.026;2022-11-15T06:32:25;99243.04;;;22.13;43.39
69239;BME280;56349;51.816;-0.026;2022-11-15T06:34:51;99239.60;;;22.14;43.32
69239;BME280;56349;51.816;-0.026;2022-11-15T06:37:17;99237.11;;;22.14;43.26
69239;BME280;56349;51.816;-0.026;2022-11-15T06:39:42;99237.16;;;22.15;43.19
69239;BME280;56349;51.816;-0.026;2022-11-15T06:42:09;99237.37;;;22.16;43.12
69239;BME280;56349;51.816;-0.026;2022-11-15T06:44:34;99236.60;;;22.17;43.04
69239;BME280;56349;51.816;-0.026;2022-11-15T06:47:00;99228.75;;;22.17;42.98
69239;BME280;56349;51.816;-0.026;2022-11-15T06:49:26;99229.11;;;22.16;42.92
69239;BME280;56349;51.816;-0.026;2022-11-15T06:51:52;99225.84;;;22.39;42.86
69239;BME280;56349;51.816;-0.026;2022-11-15T06:54:18;99224.87;;;22.16;42.81
69239;BME280;56349;51.816;-0.026;2022-11-15T06:56:44;99221.89;;;22.16;42.75
69239;BME280;56349;51.816;-0.026;2022-11-15T06:59:09;99218.89;;;22.15;42.71
69239;BME280;56349;51.816;-0.026;2022-11-15T07:01:35;99213.98;;;22.13;42.67
69239;BME280;56349;51.816;-0.026;2022-11-15T07:04:00;99207.99;;;22.11;42.64
69239;BME280;56349;51.816;-0.026;2022-11-15T07:06:26;99202.39;;;21.87;42.60
69239;BME280;56349;51.816;-0.026;2022-11-15T07:08:52;99200.90;;;22.10;42.53
69239;BME280;56349;51.816;-0.026;2022-11-15T07:11:18;99198.72;;;22.11;42.48
69239;BME280;56349;51.816;-0.026;2022-11-15T07:13:44;99204.64;;;22.08;42.47
69239;BME280;56349;51.816;-0.026;2022-11-15T07:16:10;99201.40;;;22.06;42.42
69239;BME280;56349;51.816;-0.026;2022-11-15T07:18:35;99197.10;;;22.27;42.38
69239;BME280;56349;51.816;-0.026;2022-11-15T07:21:02;99194.29;;;22.03;42.34
69239;BME280;56349;51.816;-0.026;2022-11-15T07:23:26;99186.65;;;22.24;42.35
69239;BME280;56349;51.816;-0.026;2022-11-15T07:25:51;99181.98;;;21.98;42.32
69239;BME280;56349;51.816;-0.026;2022-11-15T07:28:18;99182.26;;;21.99;42.33
69239;BME280;56349;51.816;-0.026;2022-11-15T07:30:46;99176.45;;;22.02;42.37
69239;BME280;56349;51.816;-0.026;2022-11-15T07:33:09;99180.53;;;22.27;42.45
69239;BME280;56349;51.816;-0.026;2022-11-15T07:35:34;99181.80;;;22.09;42.53
69239;BME280;56349;51.816;-0.026;2022-11-15T07:38:02;99178.57;;;22.16;42.65
69239;BME280;56349;51.816;-0.026;2022-11-15T07:40:27;99181.13;;;21.81;42.64
69239;BME280;56349;51.816;-0.026;2022-11-15T07:42:51;99177.06;;;22.46;42.56
69239;BME280;56349;51.816;-0.026;2022-11-15T07:45:16;99173.56;;;22.16;42.49
69239;BME280;56349;51.816;-0.026;2022-11-15T07:47:45;99174.15;;;22.39;42.32
69239;BME280;56349;51.816;-0.026;2022-11-15T07:50:07;99176.15;;;22.63;42.11
69239;BME280;56349;51.816;-0.026;2022-11-15T07:52:34;99171.82;;;22.88;41.87
69239;BME280;56349;51.816;-0.026;2022-11-15T07:55:03;99171.96;;;23.14;41.60
69239;BME280;56349;51.816;-0.026;2022-11-15T07:57:25;99173.24;;;23.19;41.32
69239;BME280;56349;51.816;-0.026;2022-11-15T07:59:50;99160.07;;;23.43;41.02
69239;BME280;56349;51.816;-0.026;2022-11-15T08:02:15;99161.40;;;23.41;40.71
69239;BME280;56349;51.816;-0.026;2022-11-15T08:04:42;99153.10;;;23.41;40.44
69239;BME280;56349;51.816;-0.026;2022-11-15T08:07:08;99150.48;;;23.84;40.15
69239;BME280;56349;51.816;-0.026;2022-11-15T08:09:32;99141.70;;;23.58;39.88
69239;BME280;56349;51.816;-0.026;2022-11-15T08:11:59;99139.49;;;24.23;39.59
69239;BME280;56349;51.816;-0.026;2022-11-15T08:14:24;99140.65;;;24.43;39.34
69239;BME280;56349;51.816;-0.026;2022-11-15T08:16:50;99136.87;;;24.17;39.08
69239;BME280;56349;51.816;-0.026;2022-11-15T08:19:16;99134.62;;;24.38;38.81
69239;BME280;56349;51.816;-0.026;2022-11-15T08:21:42;99135.43;;;24.61;38.45
69239;BME280;56349;51.816;-0.026;2022-11-15T08:24:09;99129.88;;;24.56;38.14
69239;BME280;56349;51.816;-0.026;2022-11-15T08:26:34;99125.05;;;24.65;37.91
69239;BME280;56349;51.816;-0.026;2022-11-15T08:28:59;99124.77;;;25.00;37.76
69239;BME280;56349;51.816;-0.026;2022-11-15T08:31:24;99121.54;;;25.17;37.53
69239;BME280;56349;51.816;-0.026;2022-11-15T08:33:50;99118.59;;;24.89;37.23
69239;BME280;56349;51.816;-0.026;2022-11-15T08:36:17;99115.87;;;25.06;36.94
69239;BME280;56349;51.816;-0.026;2022-11-15T08:38:42;99109.27;;;25.18;36.74
69239;BME280;56349;51.816;-0.026;2022-11-15T08:41:10;99103.29;;;25.27;36.55
69239;BME280;56349;51.816;-0.026;2022-11-15T08:43:32;99095.61;;;25.33;36.46
69239;BME280;56349;51.816;-0.026;2022-11-15T08:45:58;99096.31;;;25.28;36.50
69239;BME280;56349;51.816;-0.026;2022-11-15T08:48:24;99092.22;;;25.25;36.53
69239;BME280;56349;51.816;-0.026;2022-11-15T08:50:51;99089.22;;;25.27;36.58
69239;BME280;56349;51.816;-0.026;2022-11-15T08:53:15;99079.98;;;25.28;36.61
69239;BME280;56349;51.816;-0.026;2022-11-15T08:55:41;99080.26;;;25.60;36.57
69239;BME280;56349;51.816;-0.026;2022-11-15T08:58:06;99073.54;;;25.50;36.42
69239;BME280;56349;51.816;-0.026;2022-11-15T09:00:33;99067.90;;;25.62;36.28
69239;BME280;56349;51.816;-0.026;2022-11-15T09:02:57;99066.47;;;25.52;36.14
69239;BME280;56349;51.816;-0.026;2022-11-15T09:05:23;99062.34;;;25.34;36.02
69239;BME280;56349;51.816;-0.026;2022-11-15T09:07:53;99058.47;;;25.88;35.92
69239;BME280;56349;51.816;-0.026;2022-11-15T09:10:15;99055.53;;;25.91;35.88
69239;BME280;56349;51.816;-0.026;2022-11-15T09:12:40;99049.02;;;25.51;35.76
69239;BME280;56349;51.816;-0.026;2022-11-15T09:15:09;99054.48;;;25.83;35.65
69239;BME280;56349;51.816;-0.026;2022-11-15T09:17:32;99047.90;;;25.84;35.63
69239;BME280;56349;51.816;-0.026;2022-11-15T09:19:58;99040.77;;;26.08;35.51
69239;BME280;56349;51.816;-0.026;2022-11-15T09:22:24;99037.94;;;25.85;35.38
69239;BME280;56349;51.816;-0.026;2022-11-15T09:24:49;99038.66;;;25.77;35.30
69239;BME280;56349;51.816;-0.026;2022-11-15T09:27:15;99036.95;;;25.85;35.28
69239;BME280;56349;51.816;-0.026;2022-11-15T09:29:41;99033.69;;;25.63;35.36
69239;BME280;56349;51.816;-0.026;2022-11-15T09:32:07;99029.01;;;25.63;35.42
69239;BME280;56349;51.816;-0.026;2022-11-15T09:34:33;99030.49;;;25.39;35.52
69239;BME280;56349;51.816;-0.026;2022-11-15T09:36:58;99024.90;;;25.11;35.70
69239;BME280;56349;51.816;-0.026;2022-11-15T09:39:24;99024.55;;;24.86;35.83
69239;BME280;56349;51.816;-0.026;2022-11-15T09:41:58;99016.82;;;24.85;36.04
69239;BME280;56349;51.816;-0.026;2022-11-15T09:44:32;99014.60;;;24.58;36.26
69239;BME280;56349;51.816;-0.026;2022-11-15T09:46:47;99006.19;;;24.60;36.42
69239;BME280;56349;51.816;-0.026;2022-11-15T09:49:09;99007.08;;;24.15;36.60
69239;BME280;56349;51.816;-0.026;2022-11-15T09:51:37;99005.04;;;24.36;36.80
69239;BME280;56349;51.816;-0.026;2022-11-15T09:54:04;98997.04;;;23.92;36.99
69239;BME280;56349;51.816;-0.026;2022-11-15T09:56:27;98995.55;;;24.24;37.12
69239;BME280;56349;51.816;-0.026;2022-11-15T09:58:56;98995.65;;;23.83;37.25
69239;BME280;56349;51.816;-0.026;2022-11-15T10:01:19;98985.25;;;23.67;37.45
69239;BME280;56349;51.816;-0.026;2022-11-15T10:03:40;98981.35;;;23.54;37.62
69239;BME280;56349;51.816;-0.026;2022-11-15T10:06:14;98974.37;;;23.71;37.86
69239;BME280;56349;51.816;-0.026;2022-11-15T10:08:43;98973.94;;;23.40;37.96
69239;BME280;56349;51.816;-0.026;2022-11-15T10:10:58;98976.19;;;23.37;38.08
69239;BME280;56349;51.816;-0.026;2022-11-15T10:13:24;98971.06;;;23.41;38.21
69239;BME280;56349;51.816;-0.026;2022-11-15T10:15:48;98961.90;;;23.48;38.26
69239;BME280;56349;51.816;-0.026;2022-11-15T10:18:16;98954.54;;;23.58;38.31
69239;BME280;56349;51.816;-0.026;2022-11-15T10:20:46;98954.21;;;23.71;38.33
69239;BME280;56349;51.816;-0.026;2022-11-15T10:23:10;98951.65;;;24.12;38.29
69239;BME280;56349;51.816;-0.026;2022-11-15T10:25:33;98950.95;;;23.78;38.21
69239;BME280;56349;51.816;-0.026;2022-11-15T10:28:00;98940.10;;;24.18;38.04
69239;BME280;56349;51.816;-0.026;2022-11-15T10:32:49;98919.48;;;24.31;37.73
69239;BME280;56349;51.816;-0.026;2022-11-15T10:35:21;98913.52;;;24.26;37.47
69239;BME280;56349;51.816;-0.026;2022-11-15T10:37:40;98899.63;;;24.41;37.24
69239;BME280;56349;51.816;-0.026;2022-11-15T10:42:32;98894.39;;;24.34;37.03
69239;BME280;56349;51.816;-0.026;2022-11-15T10:44:58;98895.72;;;24.47;36.89
69239;BME280;56349;51.816;-0.026;2022-11-15T10:47:26;98885.29;;;24.64;36.63
69239;BME280;56349;51.816;-0.026;2022-11-15T10:49:56;98880.55;;;24.53;36.50
69239;BME280;56349;51.816;-0.026;2022-11-15T10:52:18;98878.11;;;24.88;36.38
69239;BME280;56349;51.816;-0.026;2022-11-15T10:54:43;98866.89;;;24.77;36.21
69239;BME280;56349;51.816;-0.026;2022-11-15T10:57:08;98860.24;;;24.88;36.03
69239;BME280;56349;51.816;-0.026;2022-11-15T10:59:35;98860.01;;;24.98;35.89
69239;BME280;56349;51.816;-0.026;2022-11-15T11:01:58;98850.91;;;25.26;35.81
69239;BME280;56349;51.816;-0.026;2022-11-15T11:04:24;98841.14;;;25.13;35.70
69239;BME280;56349;51.816;-0.026;2022-11-15T11:06:51;98841.92;;;25.07;35.46
69239;BME280;56349;51.816;-0.026;2022-11-15T11:09:27;98857.74;;;25.43;35.30
69239;BME280;56349;51.816;-0.026;2022-11-15T11:11:45;98833.88;;;25.28;35.13
69239;BME280;56349;51.816;-0.026;2022-11-15T11:14:11;98826.77;;;25.56;35.02
69239;BME280;56349;51.816;-0.026;2022-11-15T11:16:42;98824.61;;;25.50;35.06
69239;BME280;56349;51.816;-0.026;2022-11-15T11:19:04;98824.95;;;25.46;35.09
69239;BME280;56349;51.816;-0.026;2022-11-15T11:21:30;98823.78;;;25.42;35.13
69239;BME280;56349;51.816;-0.026;2022-11-15T11:23:53;98820.81;;;25.41;35.16
69239;BME280;56349;51.816;-0.026;2022-11-15T11:26:31;98814.53;;;25.40;35.14
69239;BME280;56349;51.816;-0.026;2022-11-15T11:28:48;98811.39;;;25.39;35.14
69239;BME280;56349;51.816;-0.026;2022-11-15T11:31:20;98806.01;;;25.40;35.10
69239;BME280;56349;51.816;-0.026;2022-11-15T11:33:37;98803.91;;;25.41;34.99
69239;BME280;56349;51.816;-0.026;2022-11-15T11:36:08;98802.78;;;25.36;34.73
69239;BME280;56349;51.816;-0.026;2022-11-15T11:38:37;98796.62;;;25.30;34.42
69239;BME280;56349;51.816;-0.026;2022-11-15T11:40:59;98790.84;;;25.26;34.21
69239;BME280;56349;51.816;-0.026;2022-11-15T11:43:21;98793.03;;;25.23;33.95
69239;BME280;56349;51.816;-0.026;2022-11-15T11:45:57;98787.92;;;25.21;33.80
69239;BME280;56349;51.816;-0.026;2022-11-15T11:48:12;98779.91;;;25.22;33.93
69239;BME280;56349;51.816;-0.026;2022-11-15T11:50:32;98772.75;;;25.27;34.16
69239;BME280;56349;51.816;-0.026;2022-11-15T11:52:59;98765.89;;;25.30;34.31
69239;BME280;56349;51.816;-0.026;2022-11-15T11:55:26;98762.93;;;25.32;34.36
69239;BME280;56349;51.816;-0.026;2022-11-15T11:57:54;98755.21;;;25.41;34.33
69239;BME280;56349;51.816;-0.026;2022-11-15T12:00:18;98755.79;;;25.48;34.37
69239;BME280;56349;51.816;-0.026;2022-11-15T12:02:41;98751.62;;;25.36;34.32
69239;BME280;56349;51.816;-0.026;2022-11-15T12:05:10;98739.07;;;25.69;34.30
69239;BME280;56349;51.816;-0.026;2022-11-15T12:07:32;98731.78;;;25.27;34.29
69239;BME280;56349;51.816;-0.026;2022-11-15T12:09:59;98725.02;;;25.84;34.22
69239;BME280;56349;51.816;-0.026;2022-11-15T12:12:27;98716.74;;;25.42;34.16
69239;BME280;56349;51.816;-0.026;2022-11-15T12:14:48;98710.45;;;25.95;34.12
69239;BME280;56349;51.816;-0.026;2022-11-15T12:17:12;98694.83;;;25.45;34.13
69239;BME280;56349;51.816;-0.026;2022-11-15T12:19:38;98695.09;;;25.71;34.13
69239;BME280;56349;51.816;-0.026;2022-11-15T12:22:06;98688.00;;;25.69;34.15
69239;BME280;56349;51.816;-0.026;2022-11-15T12:24:33;98683.49;;;25.42;34.15
69239;BME280;56349;51.816;-0.026;2022-11-15T12:27:00;98674.11;;;25.69;34.15
69239;BME280;56349;51.816;-0.026;2022-11-15T12:29:25;98671.20;;;25.46;34.07
69239;BME280;56349;51.816;-0.026;2022-11-15T12:31:50;98667.13;;;25.48;34.02
69239;BME280;56349;51.816;-0.026;2022-11-15T12:36:39;98666.73;;;25.77;33.94
69239;BME280;56349;51.816;-0.026;2022-11-15T12:39:04;98657.71;;;25.77;33.92
69239;BME280;56349;51.816;-0.026;2022-11-15T12:41:29;98655.45;;;25.77;33.89
69239;BME280;56349;51.816;-0.026;2022-11-15T12:43:55;98653.05;;;25.56;33.87
69239;BME280;56349;51.816;-0.026;2022-11-15T12:46:25;98644.85;;;25.57;33.94
69239;BME280;56349;51.816;-0.026;2022-11-15T12:48:53;98642.28;;;26.06;34.00
69239;BME280;56349;51.816;-0.026;2022-11-15T12:51:11;98635.64;;;25.57;33.96
69239;BME280;56349;51.816;-0.026;2022-11-15T12:53:37;98634.04;;;25.80;33.96
69239;BME280;56349;51.816;-0.026;2022-11-15T13:00:54;98623.32;;;25.82;34.21